Time;durP1;ratioP1;P1;durP2;ratioP2;P2;SDS_P1;SDS_P2;PMS_P1;PMS_P2;Temp;Humidity;BMP_temperature;BMP_pressure;BME280_temperature;BME280_humidity;BME280_pressure;Samples;Min_cycle;Max_cycle;Signal;HPM_P1;HPM_P2
2023/12/25 00:00:17;;;;;;;70.15;36.60;;;231.10;2252.80;;;;;;5069841;28;19995;-77
2023/12/25 00:02:42;;;;;;;66.68;35.47;;;231.20;2252.80;;;;;;5068230;28;20029;-76
2023/12/25 00:05:08;;;;;;;;;;;231.20;2252.80;;;;;;5070240;28;20032;-76
2023/12/25 00:07:34;;;;;;;62.38;35.00;;;231.20;2252.80;;;;;;5073293;28;20392;-77
2023/12/25 00:10:00;;;;;;;58.05;35.25;;;231.30;2252.80;;;;;;5066442;28;20052;-76
2023/12/25 00:12:25;;;;;;;;;;;231.20;2252.80;;;;;;5070009;28;20079;-75
2023/12/25 00:14:51;;;;;;;61.67;34.10;;;231.30;2252.80;;;;;;5075161;28;19912;-76
2023/12/25 00:17:17;;;;;;;72.32;36.50;;;231.20;2252.80;;;;;;5074584;28;20100;-76
2023/12/25 00:19:43;;;;;;;65.68;35.33;;;231.20;2252.80;;;;;;5062266;28;20052;-76
2023/12/25 00:22:08;;;;;;;65.97;36.25;;;231.10;2252.80;;;;;;5066663;28;20017;-76
2023/12/25 00:24:34;;;;;;;67.38;35.45;;;231.20;2252.80;;;;;;5072747;28;20044;-77
2023/12/25 00:27:00;;;;;;;61.67;37.33;;;231.20;2252.80;;;;;;5063820;28;20025;-76
2023/12/25 00:29:25;;;;;;;;;;;231.10;2252.80;;;;;;5078511;28;20029;-77
2023/12/25 00:31:51;;;;;;;61.47;33.80;;;231.20;2252.80;;;;;;5068380;28;19915;-76
2023/12/25 00:34:17;;;;;;;;;;;231.20;2252.80;;;;;;5064205;28;20021;-75
2023/12/25 00:36:43;;;;;;;65.50;34.00;;;231.20;2252.80;;;;;;5061667;28;19991;-76
2023/12/25 00:39:08;;;;;;;;;;;231.30;2252.80;;;;;;5058793;28;20029;-77
2023/12/25 00:41:34;;;;;;;53.95;30.92;;;231.20;2252.80;;;;;;5082713;28;19911;-77
2023/12/25 00:44:00;;;;;;;62.85;34.63;;;231.20;2252.80;;;;;;5073195;28;20032;-76
2023/12/25 00:46:26;;;;;;;64.45;34.08;;;231.20;2252.80;;;;;;5071952;28;20378;-77
2023/12/25 00:48:52;;;;;;;54.78;31.98;;;231.30;2252.80;;;;;;5070723;28;20035;-76
2023/12/25 00:51:18;;;;;;;57.80;32.50;;;256.10;2252.80;;;;;;5076373;28;20394;-77
2023/12/25 00:53:43;;;;;;;56.60;34.28;;;256.10;2252.80;;;;;;5071279;28;20045;-76
2023/12/25 00:56:09;;;;;;;;;;;256.00;2252.80;;;;;;5064898;28;20047;-76
2023/12/25 00:58:35;;;;;;;64.45;35.47;;;256.00;2252.80;;;;;;5080011;28;19917;-76
2023/12/25 01:01:01;;;;;;;69.65;37.95;;;231.10;2252.80;;;;;;5065742;28;20029;-76
2023/12/25 01:03:27;;;;;;;69.28;36.83;;;231.20;2252.80;;;;;;5071905;28;20390;-76
2023/12/25 01:05:53;;;;;;;;;;;256.00;2252.80;;;;;;5062941;28;20436;-77
2023/12/25 01:08:18;;;;;;;63.97;34.80;;;231.30;2252.80;;;;;;5074958;28;19971;-76
2023/12/25 01:10:44;;;;;;;;;;;231.20;2252.80;;;;;;5066226;28;20024;-76
2023/12/25 01:13:10;;;;;;;65.95;36.40;;;231.10;2252.80;;;;;;5076067;28;20045;-76
2023/12/25 01:15:35;;;;;;;72.03;37.80;;;231.10;2252.80;;;;;;5065439;28;20111;-76
2023/12/25 01:18:01;;;;;;;62.85;35.38;;;256.00;2252.80;;;;;;5078067;28;20052;-75
2023/12/25 01:20:27;;;;;;;61.88;36.47;;;231.20;2252.80;;;;;;5062614;28;20503;-76
2023/12/25 01:22:53;;;;;;;;;;;231.10;2252.80;;;;;;5068212;28;20493;-76
2023/12/25 01:25:18;;;;;;;59.10;34.13;;;231.10;2252.80;;;;;;5072473;28;20029;-78
2023/12/25 01:27:44;;;;;;;65.72;36.83;;;231.10;2252.80;;;;;;5065425;28;20028;-76
2023/12/25 01:30:11;;;;;;;58.10;34.45;;;231.10;2252.80;;;;;;5082124;28;20479;-77
2023/12/25 01:32:37;;;;;;;62.80;35.20;;;231.00;2252.80;;;;;;5050568;28;20466;-75
2023/12/25 01:35:04;;;;;;;62.10;33.70;;;231.30;2252.80;;;;;;5062798;28;20049;-76
2023/12/25 01:37:29;;;;;;;60.60;35.42;;;231.30;2252.80;;;;;;5066856;28;20020;-77
2023/12/25 01:39:56;;;;;;;61.58;33.83;;;256.00;2252.80;;;;;;5062332;28;20029;-76
2023/12/25 01:42:21;;;;;;;64.05;35.80;;;256.00;2252.80;;;;;;5085841;28;20028;-76
2023/12/25 01:44:47;;;;;;;90.05;44.03;;;256.10;2252.80;;;;;;5061742;28;20043;-76
2023/12/25 01:47:14;;;;;;;;;;;256.20;2252.80;;;;;;5068610;28;20020;-75
2023/12/25 01:49:41;;;;;;;60.42;31.60;;;256.20;2252.80;;;;;;5075024;28;19916;-76
2023/12/25 01:52:07;;;;;;;64.20;36.78;;;256.10;2252.80;;;;;;5072050;28;20028;-76
2023/12/25 01:54:34;;;;;;;65.88;37.85;;;231.30;2252.80;;;;;;5064702;28;20098;-76
2023/12/25 01:57:00;;;;;;;63.90;38.90;;;231.10;2252.80;;;;;;5068378;28;20073;-75
2023/12/25 01:59:30;;;;;;;70.63;37.95;;;231.10;2252.80;;;;;;5046542;28;20048;-75
2023/12/25 02:01:59;;;;;;;69.95;36.05;;;231.00;2252.80;;;;;;5072542;28;20009;-78
2023/12/25 02:04:26;;;;;;;68.47;37.65;;;230.90;2252.80;;;;;;5085044;28;20549;-76
2023/12/25 02:06:54;;;;;;;67.30;39.15;;;230.80;2252.80;;;;;;5054186;28;20107;-76
2023/12/25 02:09:20;;;;;;;61.65;36.28;;;230.90;2252.80;;;;;;5054558;28;20025;-78
2023/12/25 02:11:46;;;;;;;69.97;37.88;;;230.90;2252.80;;;;;;5088300;28;20115;-77
2023/12/25 02:14:13;;;;;;;65.28;36.50;;;230.90;2252.80;;;;;;5074174;28;20032;-76
2023/12/25 02:16:40;;;;;;;67.30;37.88;;;231.20;2252.80;;;;;;5070875;28;20424;-76
2023/12/25 02:22:46;;;;;;;66.10;35.65;;;231.10;2252.80;;;;;;5141043;23;19929;-78
2023/12/25 02:25:32;;;;;;;67.85;37.17;;;231.10;2252.80;;;;;;4975591;28;20035;-77
2023/12/25 02:28:01;;;;;;;61.13;34.20;;;231.10;2252.80;;;;;;4963961;28;20023;-76
2023/12/25 02:30:28;;;;;;;61.58;36.38;;;231.00;2252.80;;;;;;4958190;28;20035;-76
2023/12/25 02:32:53;;;;;;;64.20;36.55;;;230.90;2252.80;;;;;;4975264;28;20030;-76
2023/12/25 02:35:19;;;;;;;61.28;36.42;;;230.80;2252.80;;;;;;4975429;28;20424;-76
2023/12/25 02:37:45;;;;;;;67.35;38.17;;;230.80;2252.80;;;;;;4975906;28;20023;-76
2023/12/25 02:40:11;;;;;;;;;;;230.90;2252.80;;;;;;4975596;28;20027;-73
2023/12/25 02:42:37;;;;;;;67.63;36.47;;;231.00;2252.80;;;;;;4958589;28;20016;-75
2023/12/25 02:45:02;;;;;;;;;;;231.00;2252.80;;;;;;4975862;28;20066;-75
2023/12/25 02:47:28;;;;;;;68.75;36.97;;;231.00;2252.80;;;;;;4975054;28;19929;-74
2023/12/25 02:49:54;;;;;;;;;;;230.90;2252.80;;;;;;4975118;28;20031;-74
2023/12/25 02:52:19;;;;;;;73.45;38.47;;;230.90;2252.80;;;;;;4958134;28;19988;-75
2023/12/25 02:54:45;;;;;;;;;;;230.90;2252.80;;;;;;4976182;28;20042;-75
2023/12/25 02:57:11;;;;;;;78.82;40.58;;;230.90;2252.80;;;;;;4957834;28;19913;-74
2023/12/25 02:59:37;;;;;;;67.20;38.95;;;230.80;2252.80;;;;;;4958090;28;20429;-74
2023/12/25 03:02:03;;;;;;;76.13;41.92;;;230.90;2252.80;;;;;;4974874;28;20081;-74
2023/12/25 03:04:29;;;;;;;74.60;41.25;;;230.90;2252.80;;;;;;4975188;28;20035;-74
2023/12/25 03:06:54;;;;;;;71.53;40.70;;;230.90;2252.80;;;;;;4974736;28;20081;-75
2023/12/25 03:09:20;;;;;;;79.78;44.30;;;230.80;2252.80;;;;;;4958141;28;20035;-74
2023/12/25 03:11:46;;;;;;;77.75;41.03;;;230.80;2252.80;;;;;;4974765;28;20480;-74
2023/12/25 03:14:12;;;;;;;;;;;230.80;2252.80;;;;;;4958067;28;20023;-74
2023/12/25 03:16:37;;;;;;;77.90;43.08;;;230.70;2252.80;;;;;;4974336;28;19905;-74
2023/12/25 03:19:03;;;;;;;;;;;230.70;2252.80;;;;;;4975245;28;20085;-74
2023/12/25 03:21:29;;;;;;;79.22;42.22;;;230.60;2252.80;;;;;;4974659;28;19914;-74
2023/12/25 03:23:54;;;;;;;;;;;230.60;2252.80;;;;;;4974725;28;20412;-74
2023/12/25 03:26:20;;;;;;;89.10;44.15;;;230.70;2252.80;;;;;;4974848;28;20390;-74
2023/12/25 03:28:46;;;;;;;;;;;230.70;2252.80;;;;;;4975200;28;20018;-74
2023/12/25 03:31:12;;;;;;;89.30;45.05;;;230.60;2252.80;;;;;;4973178;28;19906;-74
2023/12/25 03:33:38;;;;;;;98.40;50.03;;;230.70;2252.80;;;;;;4974922;28;20055;-75
2023/12/25 03:36:05;;;;;;;84.07;45.67;;;230.70;2252.80;;;;;;4957379;28;20027;-74
2023/12/25 03:38:31;;;;;;;90.70;46.53;;;230.60;2252.80;;;;;;4957147;28;20034;-76
2023/12/25 03:40:57;;;;;;;89.03;46.03;;;230.60;2252.80;;;;;;4974218;28;20066;-75
2023/12/25 03:43:23;;;;;;;81.38;45.10;;;230.60;2252.80;;;;;;4974664;28;20043;-74
2023/12/25 03:45:49;;;;;;;82.80;44.13;;;230.60;2252.80;;;;;;4956618;28;20053;-74
2023/12/25 03:48:16;;;;;;;83.13;45.22;;;230.60;2252.80;;;;;;4974747;28;20023;-74
2023/12/25 03:50:42;;;;;;;88.93;48.50;;;230.40;2252.80;;;;;;4973995;28;20125;-74
2023/12/25 03:53:08;;;;;;;85.88;46.38;;;230.50;2252.80;;;;;;4974469;28;20031;-74
2023/12/25 03:55:36;;;;;;;82.35;45.00;;;230.50;2252.80;;;;;;4956831;28;20030;-74
2023/12/25 03:58:03;;;;;;;91.32;48.92;;;230.60;2252.80;;;;;;4956876;28;20026;-74
2023/12/25 04:00:28;;;;;;;73.78;43.58;;;230.50;2252.80;;;;;;4973834;28;20110;-74
2023/12/25 04:02:55;;;;;;;77.88;45.20;;;230.40;2252.80;;;;;;4973805;28;20102;-74
2023/12/25 04:05:22;;;;;;;87.28;46.88;;;230.40;2252.80;;;;;;4956422;28;20038;-75
2023/12/25 04:07:48;;;;;;;84.72;45.55;;;230.40;2252.80;;;;;;4973919;28;20078;-74
2023/12/25 04:10:15;;;;;;;88.20;46.05;;;230.40;2252.80;;;;;;4974130;28;20468;-74
2023/12/25 04:12:41;;;;;;;80.28;44.47;;;205.70;2252.80;;;;;;4973966;28;20025;-74
2023/12/25 04:15:07;;;;;;;86.25;44.90;;;205.70;2252.80;;;;;;4956941;28;20030;-75
2023/12/25 04:17:32;;;;;;;79.60;43.65;;;230.40;2252.80;;;;;;4974001;28;20494;-74
2023/12/25 04:19:58;;;;;;;78.25;43.25;;;230.50;2252.80;;;;;;4956408;28;20046;-75
2023/12/25 04:22:24;;;;;;;;;;;230.40;2252.80;;;;;;4956518;28;20055;-75
2023/12/25 04:24:50;;;;;;;73.72;37.00;;;230.50;2252.80;;;;;;4956651;28;19918;-74
2023/12/25 04:27:16;;;;;;;79.90;42.55;;;205.70;2252.80;;;;;;4956214;28;20049;-75
2023/12/25 04:29:41;;;;;;;81.80;41.75;;;230.40;2252.80;;;;;;4973712;28;20030;-74
2023/12/25 04:32:07;;;;;;;79.18;41.78;;;230.40;2252.80;;;;;;4973687;28;20018;-74
2023/12/25 04:34:33;;;;;;;86.53;42.75;;;230.40;2252.80;;;;;;4973304;28;20023;-74
2023/12/25 04:36:58;;;;;;;;;;;230.40;2252.80;;;;;;4974150;28;20074;-74
2023/12/25 04:39:24;;;;;;;84.70;42.38;;;230.50;2252.80;;;;;;4956084;28;19906;-75
2023/12/25 04:41:50;;;;;;;;;;;230.40;2252.80;;;;;;4956174;28;20031;-75
2023/12/25 04:44:15;;;;;;;85.50;40.70;;;230.50;2252.80;;;;;;4973337;28;19918;-74
2023/12/25 04:46:41;;;;;;;;;;;230.40;2252.80;;;;;;4956827;28;20029;-74
2023/12/25 04:49:07;;;;;;;75.78;41.33;;;230.40;2252.80;;;;;;4973531;28;20199;-74
2023/12/25 04:51:33;;;;;;;71.68;40.38;;;230.40;2252.80;;;;;;4955886;28;20500;-74
2023/12/25 04:53:58;;;;;;;68.75;40.55;;;230.40;2252.80;;;;;;4955392;28;20093;-74
2023/12/25 04:56:24;;;;;;;81.97;44.28;;;230.50;2252.80;;;;;;4956610;28;20023;-74
2023/12/25 04:58:50;;;;;;;;;;;230.40;2252.80;;;;;;4956629;28;20062;-74
2023/12/25 05:01:16;;;;;;;75.57;40.28;;;230.40;2252.80;;;;;;4961338;28;19906;-75
2023/12/25 05:03:41;;;;;;;;;;;230.40;2252.80;;;;;;4973622;28;20031;-75
2023/12/25 05:06:07;;;;;;;77.78;39.97;;;230.50;2252.80;;;;;;4973298;28;19906;-73
2023/12/25 05:08:33;;;;;;;;;;;230.50;2252.80;;;;;;4973739;28;20030;-74
2023/12/25 05:10:58;;;;;;;68.65;38.42;;;230.60;2252.80;;;;;;4956303;28;19913;-74
2023/12/25 05:13:24;;;;;;;;;;;230.60;2252.80;;;;;;4973775;28;20086;-74
2023/12/25 05:15:50;;;;;;;80.57;40.40;;;230.60;2252.80;;;;;;4955705;28;19914;-74
2023/12/25 05:18:16;;;;;;;79.80;41.70;;;230.60;2252.80;;;;;;4972085;28;20034;-74
2023/12/25 05:20:42;;;;;;;70.00;40.03;;;230.60;2252.80;;;;;;4972904;28;20023;-74
2023/12/25 05:23:08;;;;;;;76.55;41.85;;;230.70;2252.80;;;;;;4955229;28;20054;-74
2023/12/25 05:25:33;;;;;;;;;;;230.70;2252.80;;;;;;4955620;28;20053;-75
2023/12/25 05:27:59;;;;;;;82.57;42.92;;;230.70;2252.80;;;;;;4955943;28;19928;-75
2023/12/25 05:30:25;;;;;;;;;;;230.70;2252.80;;;;;;4955920;28;20136;-75
2023/12/25 05:32:50;;;;;;;76.55;40.33;;;230.70;2252.80;;;;;;4955625;28;19906;-74
2023/12/25 05:35:16;;;;;;;;;;;230.50;2252.80;;;;;;4973605;28;20030;-75
2023/12/25 05:37:42;;;;;;;78.65;41.70;;;230.50;2252.80;;;;;;4955540;28;19956;-74
2023/12/25 05:40:08;;;;;;;;;;;230.50;2252.80;;;;;;4973721;28;20038;-74
2023/12/25 05:42:33;;;;;;;80.15;43.42;;;230.40;2252.80;;;;;;4955325;28;20004;-74
2023/12/25 05:44:59;;;;;;;;;;;230.40;2252.80;;;;;;4956079;28;20027;-75
2023/12/25 05:47:25;;;;;;;89.55;47.15;;;230.40;2252.80;;;;;;4972802;28;19906;-75
2023/12/25 05:49:52;;;;;;;83.07;45.22;;;230.50;2252.80;;;;;;4972950;28;20023;-74
2023/12/25 05:52:18;;;;;;;103.45;48.47;;;230.50;2252.80;;;;;;4955109;28;20137;-76
2023/12/25 05:54:44;;;;;;;90.45;45.85;;;230.50;2252.80;;;;;;4975789;28;20551;-74
2023/12/25 05:57:10;;;;;;;79.97;45.00;;;230.50;2252.80;;;;;;4959039;28;20061;-74
2023/12/25 05:59:37;;;;;;;;;;;230.40;2252.80;;;;;;4959149;28;20552;-76
2023/12/25 06:02:03;;;;;;;;;;;230.50;2252.80;;;;;;4959050;28;19906;-75
2023/12/25 06:04:29;;;;;;;;;;;230.50;2252.80;;;;;;4975820;28;19965;-74
2023/12/25 06:06:54;;;;;;;;;;;230.50;2252.80;;;;;;4959498;28;19910;-74
2023/12/25 06:09:20;;;;;;;;;;;230.60;2252.80;;;;;;4959183;28;19917;-75
2023/12/25 06:11:46;;;;;;;;;;;205.60;2252.80;;;;;;4975047;28;19958;-74
2023/12/25 06:14:11;;;;;;;;;;;205.40;2252.80;;;;;;4961692;28;20334;-73
2023/12/25 06:16:37;;;;;;;;;;;205.40;2252.80;;;;;;4958217;28;19906;-75
2023/12/25 06:19:03;;;;;;;;;;;205.30;2252.80;;;;;;4958956;28;19905;-75
2023/12/25 06:21:28;;;;;;;;;;;205.20;2252.80;;;;;;4976793;28;19914;-75
2023/12/25 06:23:54;;;;;;;;;;;205.10;2252.80;;;;;;4976897;28;20284;-74
2023/12/25 06:26:20;;;;;;;;;;;205.00;2252.80;;;;;;4959262;28;19921;-73
2023/12/25 06:28:46;;;;;;;;;;;205.00;2252.80;;;;;;4976629;28;20016;-74
2023/12/25 06:31:11;;;;;;;;;;;205.00;2252.80;;;;;;4976490;28;20387;-77
2023/12/25 06:33:38;;;;;;;;;;;204.80;2252.80;;;;;;4959253;28;20395;-75
2023/12/25 06:36:03;;;;;;;;;;;205.00;2252.80;;;;;;4975637;28;19953;-75
2023/12/25 06:38:29;;;;;;;;;;;205.10;2252.80;;;;;;4959085;28;20426;-76
2023/12/25 06:40:54;;;;;;;;;;;205.10;2252.80;;;;;;4963138;28;19910;-78
2023/12/25 06:43:20;;;;;;;;;;;205.00;2252.80;;;;;;4975077;28;20008;-77
2023/12/25 06:45:46;;;;;;;;;;;204.90;2252.80;;;;;;4970976;28;19914;-77
2023/12/25 06:48:11;;;;;;;;;;;205.10;2252.80;;;;;;4976068;28;20924;-76
2023/12/25 06:50:38;;;;;;;;;;;205.20;2252.80;;;;;;4976671;28;19961;-77
2023/12/25 06:53:04;;;;;;;;;;;205.20;2252.80;;;;;;4957873;28;20276;-77
2023/12/25 06:55:30;;;;;;;;;;;205.20;2252.80;;;;;;4970877;28;19937;-77
2023/12/25 06:57:55;;;;;;;;;;;205.20;2252.80;;;;;;4958767;28;19952;-76
2023/12/25 07:00:21;;;;;;;;;;;205.20;2252.80;;;;;;4976301;28;19961;-76
2023/12/25 07:02:47;;;;;;;;;;;205.20;2252.80;;;;;;4975762;28;19906;-77
2023/12/25 07:05:12;;;;;;;;;;;205.10;2252.80;;;;;;4957780;28;19965;-77
2023/12/25 07:07:38;;;;;;;;;;;205.20;2252.80;;;;;;4975935;28;19913;-78
2023/12/25 07:10:04;;;;;;;;;;;205.40;2252.80;;;;;;4975573;28;19906;-77
2023/12/25 07:12:30;;;;;;;;;;;205.50;2252.80;;;;;;4957918;28;19914;-78
2023/12/25 07:14:55;;;;;;;;;;;205.50;2252.80;;;;;;4976194;28;19907;-78
2023/12/25 07:17:21;;;;;;;;;;;205.60;2252.80;;;;;;4958784;28;20001;-77
2023/12/25 07:19:47;;;;;;;;;;;205.50;2252.80;;;;;;4975832;28;19906;-78
2023/12/25 07:22:13;;;;;;;;;;;205.60;2252.80;;;;;;4958076;28;19922;-77
2023/12/25 07:24:38;;;;;;;;;;;205.70;2252.80;;;;;;4975948;28;20383;-77
2023/12/25 07:27:04;;;;;;;;;;;205.70;2252.80;;;;;;4975972;28;19913;-77
2023/12/25 07:29:30;;;;;;;;;;;230.40;2252.80;;;;;;4975592;28;19957;-78
2023/12/25 07:31:56;;;;;;;;;;;230.40;2252.80;;;;;;4957120;28;20000;-77
2023/12/25 07:34:22;;;;;;;;;;;230.60;2252.80;;;;;;4973719;28;19953;-76
2023/12/25 07:36:48;;;;;;;;;;;230.50;2252.80;;;;;;4974788;28;20315;-78
2023/12/25 07:39:14;;;;;;;;;;;230.50;2252.80;;;;;;4957696;28;19906;-78
2023/12/25 07:41:41;;;;;;;;;;;230.40;2252.80;;;;;;4957497;28;19914;-78
2023/12/25 07:44:07;;;;;;;;;;;230.60;2252.80;;;;;;4975591;28;19914;-78
2023/12/25 07:46:32;;;;;;;;;;;230.60;2252.80;;;;;;4976033;28;20253;-77
2023/12/25 07:48:58;;;;;;;;;;;230.60;2252.80;;;;;;4975395;28;19932;-77
2023/12/25 07:51:24;;;;;;;;;;;230.50;2252.80;;;;;;4957381;28;19914;-77
2023/12/25 07:53:49;;;;;;;;;;;230.60;2252.80;;;;;;4961097;28;19913;-77
2023/12/25 07:56:15;;;;;;;;;;;230.80;2252.80;;;;;;4954441;28;20277;-77
2023/12/25 07:58:41;;;;;;;;;;;230.70;2252.80;;;;;;4957668;28;19910;-78
2023/12/25 08:01:08;;;;;;;;;;;230.70;2252.80;;;;;;4957785;28;20378;-78
2023/12/25 08:03:33;;;;;;;;;;;230.60;2252.80;;;;;;4956383;28;19910;-79
2023/12/25 08:05:59;;;;;;;;;;;230.80;2252.80;;;;;;4954901;28;19914;-77
2023/12/25 08:08:25;;;;;;;;;;;230.70;2252.80;;;;;;4973443;28;19917;-75
2023/12/25 08:10:50;;;;;;;;;;;230.80;2252.80;;;;;;4975667;28;19910;-77
2023/12/25 08:13:17;;;;;;;;;;;230.80;2252.80;;;;;;4958065;28;19925;-76
2023/12/25 08:15:43;;;;;;;;;;;231.10;2252.80;;;;;;4975024;28;19906;-77
2023/12/25 08:18:09;;;;;;;;;;;231.30;2252.80;;;;;;4973108;28;19965;-76
2023/12/25 08:20:34;;;;;;;;;;;256.00;2252.80;;;;;;4973704;28;20360;-79
2023/12/25 08:23:00;;;;;;;;;;;256.10;2252.80;;;;;;4974642;28;19926;-78
2023/12/25 08:25:26;;;;;;;;;;;256.20;2252.80;;;;;;4974599;28;19913;-78
2023/12/25 08:27:52;;;;;;;;;;;256.40;2252.80;;;;;;4974500;28;19918;-77
2023/12/25 08:30:18;;;;;;;;;;;256.50;2252.80;;;;;;4974740;28;19965;-77
2023/12/25 08:32:43;;;;;;;;;;;256.50;2252.80;;;;;;4956863;28;19910;-76
2023/12/25 08:35:10;;;;;;;;;;;256.50;2252.80;;;;;;4957491;28;19965;-78
2023/12/25 08:37:36;;;;;;;;;;;256.50;2252.80;;;;;;4974866;28;19914;-78
2023/12/25 08:40:03;;;;;;;;;;;256.70;2252.80;;;;;;4974215;28;19906;-78
2023/12/25 08:42:29;;;;;;;;;;;256.80;2252.80;;;;;;4974216;28;19913;-78
2023/12/25 08:44:55;;;;;;;;;;;256.90;2252.80;;;;;;4974391;28;19914;-78
2023/12/25 08:47:22;;;;;;;;;;;281.70;2278.40;;;;;;4974198;28;19925;-77
2023/12/25 08:49:48;;;;;;;;;;;281.70;2278.40;;;;;;4974335;28;20029;-78
2023/12/25 08:52:13;;;;;;;;;;;281.90;2278.40;;;;;;4959395;28;19961;-78
2023/12/25 08:54:39;;;;;;;;;;;282.00;2278.40;;;;;;4974162;28;19906;-78
2023/12/25 08:57:06;;;;;;;;;;;282.20;2278.40;;;;;;4974017;28;19929;-78
2023/12/25 08:59:31;;;;;;;;;;;282.30;2278.40;;;;;;4956889;28;19997;-77
2023/12/25 09:01:57;;;;;;;;;;;282.30;2278.40;;;;;;4957307;28;19945;-77
2023/12/25 09:04:23;;;;;;;;;;;282.40;2278.40;;;;;;4974057;28;19914;-76
2023/12/25 09:06:48;;;;;;;;;;;282.50;2278.40;;;;;;4974512;28;19938;-76
2023/12/25 09:09:14;;;;;;;;;;;307.20;2304.00;;;;;;4980929;28;19993;-77
2023/12/25 09:11:40;;;;;;;;;;;307.20;2304.00;;;;;;4956300;28;19917;-77
2023/12/25 09:14:05;;;;;;;;;;;307.20;2304.00;;;;;;4974357;28;20422;-77
2023/12/25 09:16:31;;;;;;;;;;;307.30;2304.00;;;;;;4974067;28;19910;-76
2023/12/25 09:18:57;;;;;;;;;;;307.30;2304.00;;;;;;4956551;28;19932;-76
2023/12/25 09:21:22;;;;;;;;;;;307.30;2304.00;;;;;;4954990;28;20398;-77
2023/12/25 09:23:48;;;;;;;;;;;307.40;2304.00;;;;;;4973825;28;19985;-76
2023/12/25 09:26:20;;;;;;;;;;;307.50;2304.00;;;;;;4972267;28;19914;-77
2023/12/25 09:28:46;;;;;;;;;;;307.60;2304.00;;;;;;4954885;28;19906;-77
2023/12/25 09:31:12;;;;;;;;;;;307.50;2304.00;;;;;;4978061;28;19932;-77
2023/12/25 09:33:38;;;;;;;;;;;307.60;2304.00;;;;;;4960452;28;19906;-77
2023/12/25 09:36:05;;;;;;;;;;;307.60;2304.00;;;;;;4960310;28;20371;-78
2023/12/25 09:38:30;;;;;;;;;;;307.70;2304.00;;;;;;4955916;28;19910;-77
2023/12/25 09:40:56;;;;;;;;;;;307.80;2304.00;;;;;;4959942;28;19913;-76
2023/12/25 09:43:22;;;;;;;;;;;307.80;2304.00;;;;;;4955290;28;20360;-77
2023/12/25 09:45:48;;;;;;;;;;;308.00;2304.00;;;;;;4959572;28;19942;-76
2023/12/25 09:48:14;;;;;;;;;;;308.10;2304.00;;;;;;4959978;28;20387;-77
2023/12/25 09:50:40;;;;;;;;;;;308.10;2304.00;;;;;;4975474;28;19914;-76
2023/12/25 09:53:06;;;;;;;;;;;332.80;2329.60;;;;;;4975810;28;19913;-75
2023/12/25 09:55:31;;;;;;;;;;;332.90;2329.60;;;;;;4977229;28;19914;-76
2023/12/25 09:57:59;;;;;;;;;;;333.10;2329.60;;;;;;4975983;28;19950;-78
2023/12/25 10:00:25;;;;;;;;;;;333.10;2329.60;;;;;;4977016;28;19949;-76
2023/12/25 10:02:51;;;;;;;;;;;333.30;2329.60;;;;;;4976007;28;20332;-77
2023/12/25 10:05:19;;;;;;;;;;;333.60;2329.60;;;;;;4976403;28;19922;-76
2023/12/25 10:07:45;;;;;;;;;;;333.50;2329.60;;;;;;4959373;28;19906;-78
2023/12/25 10:10:11;;;;;;;;;;;358.50;2329.60;;;;;;4972661;28;19911;-76
2023/12/25 10:12:37;;;;;;;;;;;;;;;;;;4969119;28;20324;-77
2023/12/25 10:15:05;;;;;;;;;;;384.40;2329.60;;;;;;4977200;28;19910;-76
2023/12/25 10:17:30;;;;;;;;;;;384.80;2329.60;;;;;;4959220;28;19914;-76
2023/12/25 10:19:56;;;;;;;;;;;;;;;;;;4976827;28;19913;-76
2023/12/25 10:22:22;;;;;;;;;;;;;;;;;;4976596;28;19957;-77
2023/12/25 10:24:48;;;;;;;;;;;410.50;2304.00;;;;;;4959203;28;19944;-77
2023/12/25 10:27:13;;;;;;;;;;;410.20;2304.00;;;;;;4976347;28;20372;-76
2023/12/25 10:29:39;;;;;;;;;;;410.10;2355.20;;;;;;4958719;28;19913;-78
2023/12/25 10:32:18;;;;;;;;;;;410.10;2355.20;;;;;;4976754;28;19913;-78
2023/12/25 10:34:43;;;;;;;;;;;410.30;2355.20;;;;;;4976042;28;19906;-77
2023/12/25 10:37:10;;;;;;;;;;;435.50;2201.60;;;;;;4977287;28;19910;-77
2023/12/25 10:39:35;;;;;;;;;;;435.50;2176.00;;;;;;4975736;28;19906;-78
2023/12/25 10:42:01;;;;;;;;;;;435.80;2150.40;;;;;;4975853;28;19906;-77
2023/12/25 10:44:28;;;;;;;;;;;436.10;2073.60;;;;;;4957941;28;19977;-77
2023/12/25 10:46:54;;;;;;;;;;;436.10;2073.60;;;;;;4976887;28;20414;-77
2023/12/25 10:49:20;;;;;;;;;;;460.80;2073.60;;;;;;4976160;28;19914;-75
2023/12/25 10:51:47;;;;;;;;;;;460.90;2073.60;;;;;;4976430;28;19913;-78
2023/12/25 10:54:15;;;;;;;;;;;460.90;2124.80;;;;;;4958564;28;19989;-78
2023/12/25 10:56:40;;;;;;;;;;;461.10;2099.20;;;;;;4975159;28;20017;-76
2023/12/25 10:59:11;;;;;;;;;;;461.10;2048.00;;;;;;4956614;28;19969;-78
2023/12/25 11:01:37;;;;;;;;;;;461.20;2022.40;;;;;;4976143;28;19918;-76
2023/12/25 11:04:03;;;;;;;;;;;461.30;2048.00;;;;;;4957511;28;19944;-77
2023/12/25 11:06:29;;;;;;;;;;;461.30;2048.00;;;;;;4955748;28;20271;-78
2023/12/25 11:08:55;;;;;;;;;;;461.40;2073.60;;;;;;4961065;28;19914;-78
2023/12/25 11:11:21;;;;;;;;;;;461.30;2048.00;;;;;;4958522;28;19910;-77
2023/12/25 11:13:47;;;;;;;;;;;461.30;2022.40;;;;;;4968907;28;19918;-76
2023/12/25 11:16:13;;;;;;;;;;;461.30;2022.40;;;;;;4958101;28;20291;-77
2023/12/25 11:18:38;;;;;;;;;;;461.20;1996.80;;;;;;4965697;28;20017;-77
2023/12/25 11:21:08;;;;;;;;;;;461.20;2022.40;;;;;;4972472;28;19910;-76
2023/12/25 11:23:35;;;;;;;;;;;461.40;1996.80;;;;;;4957959;28;20020;-78
2023/12/25 11:26:03;;;;;;;;;;;461.40;1971.20;;;;;;4975565;28;19918;-78
2023/12/25 11:28:31;;;;;;;;;;;461.40;1971.20;;;;;;4958563;28;19913;-76
2023/12/25 11:30:56;;;;;;;;;;;461.40;1971.20;;;;;;4975970;28;19957;-76
2023/12/25 11:33:22;;;;;;;;;;;461.20;1971.20;;;;;;4956587;28;19906;-76
2023/12/25 11:35:48;;;;;;;;;;;461.10;1996.80;;;;;;4958192;28;20364;-77
2023/12/25 11:38:16;;;;;;;;;;;461.10;1996.80;;;;;;4975662;28;19945;-77
2023/12/25 11:40:43;;;;;;;;;;;461.20;1996.80;;;;;;4958178;28;19920;-77
2023/12/25 11:43:09;;;;;;;;;;;461.00;1996.80;;;;;;4975756;28;19948;-79
2023/12/25 11:45:42;;;;;;;;;;;461.00;1996.80;;;;;;4958170;28;19954;-76
2023/12/25 11:48:10;;;;;;;;;;;461.00;2022.40;;;;;;4971570;28;19948;-77
2023/12/25 11:50:36;;;;;;;;;;;460.90;1996.80;;;;;;4975690;28;20006;-76
2023/12/25 11:53:02;;;;;;;;;;;436.10;1996.80;;;;;;4975243;28;19993;-76
2023/12/25 11:55:27;;;;;;;;;;;436.10;1971.20;;;;;;4974432;28;19945;-77
2023/12/25 11:57:53;;;;;;;;;;;436.10;1971.20;;;;;;4973782;28;19914;-76
2023/12/25 12:00:23;;;;;;;;;;;436.10;1971.20;;;;;;4975329;28;20008;-77
2023/12/25 12:02:49;;;;;;;;;;;435.90;1971.20;;;;;;4975330;28;19906;-77
2023/12/25 12:05:15;;;;;;;;;;;435.90;1996.80;;;;;;4975174;28;19921;-76
2023/12/25 12:07:41;;;;;;;;;;;435.90;2022.40;;;;;;4975092;28;19910;-77
2023/12/25 12:10:07;;;;;;;;;;;435.70;2099.20;;;;;;4970992;28;19933;-76
2023/12/25 12:12:33;;;;;;;;;;;435.60;2176.00;;;;;;4956943;28;19906;-79
2023/12/25 12:15:00;;;;;;;;;;;435.50;2176.00;;;;;;4975013;28;19910;-77
2023/12/25 12:17:25;;;;;;;;;;;435.50;2201.60;;;;;;4975307;28;19913;-78
2023/12/25 12:19:51;;;;;;;;;;;435.50;2252.80;;;;;;4975136;28;19906;-77
2023/12/25 12:22:18;;;;;;;;;;;435.40;2201.60;;;;;;4974677;28;19922;-76
2023/12/25 12:24:44;;;;;;;;;;;435.40;2304.00;;;;;;4974812;28;19925;-77
2023/12/25 12:27:12;;;;;;;;;;;435.30;2355.20;;;;;;4972088;28;19919;-77
2023/12/25 12:29:39;;;;;;;;;;;435.30;2355.20;;;;;;4974349;28;20283;-77
2023/12/25 12:32:08;;;;;;;;;;;435.20;2355.20;;;;;;4974547;28;19917;-76
2023/12/25 12:34:33;;;;;;;;;;;410.50;2355.20;;;;;;4971727;28;19906;-77
2023/12/25 12:37:00;;;;;;;;;;;410.50;2355.20;;;;;;4957157;28;20343;-76
2023/12/25 12:39:26;;;;;;;;;;;435.20;2355.20;;;;;;4974674;28;19912;-76
2023/12/25 12:41:54;;;;;;;;;;;410.30;2355.20;;;;;;4955539;28;19997;-77
2023/12/25 12:44:21;;;;;;;;;;;410.30;2355.20;;;;;;4974156;28;19914;-76
2023/12/25 12:46:47;;;;;;;;;;;410.20;2355.20;;;;;;4974739;28;19910;-77
2023/12/25 12:49:13;;;;;;;;;;;410.20;2355.20;;;;;;4974589;28;19917;-77
2023/12/25 12:51:39;;;;;;;;;;;410.20;2355.20;;;;;;4973957;28;19910;-78
2023/12/25 12:54:05;;;;;;;;;;;410.20;2355.20;;;;;;4956849;28;19932;-77
2023/12/25 12:56:30;;;;;;;;;;;410.20;2355.20;;;;;;4956283;28;19910;-77
2023/12/25 12:58:56;;;;;;;;;;;410.20;2355.20;;;;;;4956801;28;20372;-77